sensor_id;sensor_type;location;lat;lon;timestamp;P1;durP1;ratioP1;P2;durP2;ratioP2
43216;SDS011;60511;42.686;23.300;2023-05-10T00:01:05;1.00;;;0.90;;
43216;SDS011;60511;42.686;23.300;2023-05-10T00:03:06;0.73;;;0.57;;
43216;SDS011;60511;42.686;23.300;2023-05-10T00:05:06;0.80;;;0.70;;
43216;SDS011;60511;42.686;23.300;2023-05-10T00:07:07;1.38;;;1.15;;
43216;SDS011;60511;42.686;23.300;2023-05-10T00:09:07;1.23;;;1.00;;
43216;SDS011;60511;42.686;23.300;2023-05-10T00:11:08;0.80;;;0.77;;
43216;SDS011;60511;42.686;23.300;2023-05-10T00:13:08;1.25;;;0.88;;
43216;SDS011;60511;42.686;23.300;2023-05-10T00:15:10;0.98;;;0.80;;
43216;SDS011;60511;42.686;23.300;2023-05-10T00:17:10;1.30;;;0.90;;
43216;SDS011;60511;42.686;23.300;2023-05-10T00:19:11;0.98;;;0.88;;
43216;SDS011;60511;42.686;23.300;2023-05-10T00:21:11;1.00;;;0.90;;
43216;SDS011;60511;42.686;23.300;2023-05-10T00:23:12;0.80;;;0.68;;
43216;SDS011;60511;42.686;23.300;2023-05-10T00:25:12;9.15;;;1.05;;
43216;SDS011;60511;42.686;23.300;2023-05-10T00:27:12;2.25;;;1.30;;
43216;SDS011;60511;42.686;23.300;2023-05-10T00:29:13;1.33;;;0.85;;
43216;SDS011;60511;42.686;23.300;2023-05-10T00:31:13;0.90;;;0.82;;
43216;SDS011;60511;42.686;23.300;2023-05-10T00:33:14;0.75;;;0.75;;
43216;SDS011;60511;42.686;23.300;2023-05-10T00:35:15;1.13;;;0.82;;
43216;SDS011;60511;42.686;23.300;2023-05-10T00:37:16;1.08;;;0.98;;
43216;SDS011;60511;42.686;23.300;2023-05-10T00:39:16;1.20;;;1.10;;
43216;SDS011;60511;42.686;23.300;2023-05-10T00:41:16;0.82;;;0.82;;
43216;SDS011;60511;42.686;23.300;2023-05-10T00:43:17;0.93;;;0.90;;
43216;SDS011;60511;42.686;23.300;2023-05-10T00:45:17;1.25;;;1.15;;
43216;SDS011;60511;42.686;23.300;2023-05-10T00:47:18;1.30;;;1.05;;
43216;SDS011;60511;42.686;23.300;2023-05-10T00:49:18;1.50;;;0.90;;
43216;SDS011;60511;42.686;23.300;2023-05-10T00:51:20;1.35;;;1.30;;
43216;SDS011;60511;42.686;23.300;2023-05-10T00:53:21;1.48;;;1.27;;
43216;SDS011;60511;42.686;23.300;2023-05-10T00:55:21;1.17;;;0.88;;
43216;SDS011;60511;42.686;23.300;2023-05-10T00:57:22;1.00;;;0.90;;
43216;SDS011;60511;42.686;23.300;2023-05-10T00:59:22;1.20;;;1.10;;
43216;SDS011;60511;42.686;23.300;2023-05-10T01:01:24;1.10;;;0.90;;
43216;SDS011;60511;42.686;23.300;2023-05-10T01:03:25;1.17;;;1.08;;
43216;SDS011;60511;42.686;23.300;2023-05-10T01:05:25;0.95;;;0.95;;
43216;SDS011;60511;42.686;23.300;2023-05-10T01:07:27;2.33;;;1.50;;
43216;SDS011;60511;42.686;23.300;2023-05-10T01:09:28;1.95;;;1.35;;
43216;SDS011;60511;42.686;23.300;2023-05-10T01:11:28;1.20;;;1.05;;
43216;SDS011;60511;42.686;23.300;2023-05-10T01:13:33;1.20;;;1.10;;
43216;SDS011;60511;42.686;23.300;2023-05-10T01:15:36;1.15;;;0.90;;
43216;SDS011;60511;42.686;23.300;2023-05-10T01:17:37;1.25;;;1.15;;
43216;SDS011;60511;42.686;23.300;2023-05-10T01:19:39;4.78;;;1.13;;
43216;SDS011;60511;42.686;23.300;2023-05-10T01:21:48;1.13;;;0.93;;
43216;SDS011;60511;42.686;23.300;2023-05-10T01:34:02;1.38;;;1.15;;
43216;SDS011;60511;42.686;23.300;2023-05-10T01:36:10;1.23;;;1.13;;
43216;SDS011;60511;42.686;23.300;2023-05-10T01:40:39;1.30;;;1.20;;
43216;SDS011;60511;42.686;23.300;2023-05-10T01:42:46;1.23;;;1.20;;
43216;SDS011;60511;42.686;23.300;2023-05-10T01:47:00;1.30;;;1.20;;
43216;SDS011;60511;42.686;23.300;2023-05-10T01:49:16;1.25;;;1.15;;
43216;SDS011;60511;42.686;23.300;2023-05-10T01:51:23;2.00;;;1.20;;
43216;SDS011;60511;42.686;23.300;2023-05-10T01:53:25;1.45;;;1.35;;
43216;SDS011;60511;42.686;23.300;2023-05-10T01:55:28;1.40;;;1.30;;
43216;SDS011;60511;42.686;23.300;2023-05-10T01:57:35;1.58;;;1.48;;
43216;SDS011;60511;42.686;23.300;2023-05-10T01:59:39;1.50;;;1.40;;
43216;SDS011;60511;42.686;23.300;2023-05-10T02:01:43;3.00;;;1.35;;
43216;SDS011;60511;42.686;23.300;2023-05-10T02:03:45;1.25;;;1.13;;
43216;SDS011;60511;42.686;23.300;2023-05-10T02:05:48;1.00;;;1.00;;
43216;SDS011;60511;42.686;23.300;2023-05-10T02:07:51;1.85;;;1.35;;
43216;SDS011;60511;42.686;23.300;2023-05-10T02:09:52;1.35;;;1.10;;
43216;SDS011;60511;42.686;23.300;2023-05-10T02:11:54;1.50;;;1.40;;
43216;SDS011;60511;42.686;23.300;2023-05-10T02:13:58;1.17;;;1.17;;
43216;SDS011;60511;42.686;23.300;2023-05-10T02:16:00;1.50;;;1.40;;
43216;SDS011;60511;42.686;23.300;2023-05-10T02:18:03;3.92;;;1.30;;
43216;SDS011;60511;42.686;23.300;2023-05-10T02:20:06;1.10;;;1.10;;
43216;SDS011;60511;42.686;23.300;2023-05-10T02:22:07;1.20;;;1.10;;
43216;SDS011;60511;42.686;23.300;2023-05-10T02:24:09;1.20;;;1.10;;
43216;SDS011;60511;42.686;23.300;2023-05-10T02:26:12;1.00;;;1.00;;
43216;SDS011;60511;42.686;23.300;2023-05-10T02:28:15;1.92;;;1.40;;
43216;SDS011;60511;42.686;23.300;2023-05-10T02:30:17;1.25;;;1.10;;
43216;SDS011;60511;42.686;23.300;2023-05-10T02:32:19;1.50;;;1.40;;
43216;SDS011;60511;42.686;23.300;2023-05-10T02:34:21;2.53;;;1.50;;
43216;SDS011;60511;42.686;23.300;2023-05-10T02:36:23;1.17;;;1.10;;
43216;SDS011;60511;42.686;23.300;2023-05-10T02:38:27;1.25;;;1.15;;
43216;SDS011;60511;42.686;23.300;2023-05-10T02:40:28;1.60;;;1.50;;
43216;SDS011;60511;42.686;23.300;2023-05-10T02:42:31;2.05;;;1.38;;
43216;SDS011;60511;42.686;23.300;2023-05-10T02:44:35;1.65;;;1.08;;
43216;SDS011;60511;42.686;23.300;2023-05-10T02:46:37;1.48;;;1.25;;
43216;SDS011;60511;42.686;23.300;2023-05-10T02:48:37;1.40;;;1.30;;
43216;SDS011;60511;42.686;23.300;2023-05-10T02:50:38;1.70;;;1.60;;
43216;SDS011;60511;42.686;23.300;2023-05-10T02:52:46;1.52;;;1.42;;
43216;SDS011;60511;42.686;23.300;2023-05-10T02:54:48;1.60;;;1.42;;
43216;SDS011;60511;42.686;23.300;2023-05-10T02:56:53;1.33;;;1.23;;
43216;SDS011;60511;42.686;23.300;2023-05-10T02:58:57;1.95;;;1.58;;
43216;SDS011;60511;42.686;23.300;2023-05-10T03:00:57;1.40;;;1.30;;
43216;SDS011;60511;42.686;23.300;2023-05-10T03:02:58;2.00;;;1.77;;
43216;SDS011;60511;42.686;23.300;2023-05-10T03:04:58;1.30;;;1.20;;
43216;SDS011;60511;42.686;23.300;2023-05-10T03:06:59;1.25;;;1.20;;
43216;SDS011;60511;42.686;23.300;2023-05-10T03:08:59;1.50;;;1.40;;
43216;SDS011;60511;42.686;23.300;2023-05-10T03:11:06;1.15;;;1.13;;
43216;SDS011;60511;42.686;23.300;2023-05-10T03:13:29;1.50;;;1.40;;
43216;SDS011;60511;42.686;23.300;2023-05-10T03:16:12;1.65;;;1.55;;
43216;SDS011;60511;42.686;23.300;2023-05-10T03:18:22;2.28;;;1.70;;
43216;SDS011;60511;42.686;23.300;2023-05-10T03:20:29;1.77;;;1.45;;
43216;SDS011;60511;42.686;23.300;2023-05-10T03:23:00;1.40;;;1.30;;
43216;SDS011;60511;42.686;23.300;2023-05-10T03:25:06;2.95;;;1.67;;
43216;SDS011;60511;42.686;23.300;2023-05-10T03:27:08;1.58;;;1.48;;
43216;SDS011;60511;42.686;23.300;2023-05-10T03:29:09;2.00;;;1.42;;
43216;SDS011;60511;42.686;23.300;2023-05-10T03:31:11;2.15;;;1.80;;
43216;SDS011;60511;42.686;23.300;2023-05-10T03:33:12;1.30;;;1.20;;
43216;SDS011;60511;42.686;23.300;2023-05-10T03:35:13;1.80;;;1.40;;
43216;SDS011;60511;42.686;23.300;2023-05-10T03:37:14;1.55;;;1.45;;
43216;SDS011;60511;42.686;23.300;2023-05-10T03:39:14;2.42;;;1.70;;
43216;SDS011;60511;42.686;23.300;2023-05-10T03:41:15;1.58;;;1.48;;
43216;SDS011;60511;42.686;23.300;2023-05-10T03:43:15;1.88;;;1.63;;
43216;SDS011;60511;42.686;23.300;2023-05-10T03:45:16;1.88;;;1.42;;
43216;SDS011;60511;42.686;23.300;2023-05-10T03:47:16;2.13;;;1.92;;
43216;SDS011;60511;42.686;23.300;2023-05-10T03:49:16;2.08;;;1.63;;
43216;SDS011;60511;42.686;23.300;2023-05-10T03:51:17;1.27;;;1.17;;
43216;SDS011;60511;42.686;23.300;2023-05-10T03:53:17;1.55;;;1.45;;
43216;SDS011;60511;42.686;23.300;2023-05-10T03:55:17;2.78;;;1.65;;
43216;SDS011;60511;42.686;23.300;2023-05-10T03:57:18;1.88;;;1.55;;
43216;SDS011;60511;42.686;23.300;2023-05-10T03:59:18;2.13;;;1.92;;
43216;SDS011;60511;42.686;23.300;2023-05-10T04:01:19;2.08;;;1.45;;
43216;SDS011;60511;42.686;23.300;2023-05-10T04:03:19;1.50;;;1.40;;
43216;SDS011;60511;42.686;23.300;2023-05-10T04:05:20;1.83;;;1.73;;
43216;SDS011;60511;42.686;23.300;2023-05-10T04:07:20;1.63;;;1.52;;
43216;SDS011;60511;42.686;23.300;2023-05-10T04:09:20;1.85;;;1.73;;
43216;SDS011;60511;42.686;23.300;2023-05-10T04:11:21;1.75;;;1.40;;
43216;SDS011;60511;42.686;23.300;2023-05-10T04:13:21;1.77;;;1.65;;
43216;SDS011;60511;42.686;23.300;2023-05-10T04:15:22;1.85;;;1.67;;
43216;SDS011;60511;42.686;23.300;2023-05-10T04:17:23;1.90;;;1.80;;
43216;SDS011;60511;42.686;23.300;2023-05-10T04:19:23;1.70;;;1.60;;
43216;SDS011;60511;42.686;23.300;2023-05-10T04:21:23;1.92;;;1.75;;
43216;SDS011;60511;42.686;23.300;2023-05-10T04:23:24;1.73;;;1.63;;
43216;SDS011;60511;42.686;23.300;2023-05-10T04:25:24;1.63;;;1.52;;
43216;SDS011;60511;42.686;23.300;2023-05-10T04:27:25;1.48;;;1.38;;
43216;SDS011;60511;42.686;23.300;2023-05-10T04:29:25;2.40;;;2.22;;
43216;SDS011;60511;42.686;23.300;2023-05-10T04:31:26;1.95;;;1.70;;
43216;SDS011;60511;42.686;23.300;2023-05-10T04:33:28;1.45;;;1.35;;
43216;SDS011;60511;42.686;23.300;2023-05-10T04:35:29;1.90;;;1.80;;
43216;SDS011;60511;42.686;23.300;2023-05-10T04:37:30;1.70;;;1.60;;
43216;SDS011;60511;42.686;23.300;2023-05-10T04:39:30;2.08;;;1.98;;
43216;SDS011;60511;42.686;23.300;2023-05-10T04:41:31;2.08;;;1.85;;
43216;SDS011;60511;42.686;23.300;2023-05-10T04:43:31;2.10;;;1.42;;
43216;SDS011;60511;42.686;23.300;2023-05-10T04:45:31;2.13;;;1.73;;
43216;SDS011;60511;42.686;23.300;2023-05-10T04:47:32;1.65;;;1.55;;
43216;SDS011;60511;42.686;23.300;2023-05-10T04:49:32;2.10;;;1.92;;
43216;SDS011;60511;42.686;23.300;2023-05-10T04:51:33;3.67;;;2.05;;
43216;SDS011;60511;42.686;23.300;2023-05-10T04:53:33;2.05;;;1.85;;
43216;SDS011;60511;42.686;23.300;2023-05-10T04:55:33;2.83;;;1.80;;
43216;SDS011;60511;42.686;23.300;2023-05-10T04:57:34;1.70;;;1.60;;
43216;SDS011;60511;42.686;23.300;2023-05-10T04:59:35;2.30;;;1.75;;
43216;SDS011;60511;42.686;23.300;2023-05-10T05:01:36;1.60;;;1.50;;
43216;SDS011;60511;42.686;23.300;2023-05-10T05:03:37;2.00;;;1.70;;
43216;SDS011;60511;42.686;23.300;2023-05-10T05:05:37;2.13;;;1.52;;
43216;SDS011;60511;42.686;23.300;2023-05-10T05:07:38;2.22;;;1.60;;
43216;SDS011;60511;42.686;23.300;2023-05-10T05:09:38;2.08;;;1.55;;
43216;SDS011;60511;42.686;23.300;2023-05-10T05:11:39;1.50;;;1.40;;
43216;SDS011;60511;42.686;23.300;2023-05-10T05:13:40;2.03;;;1.80;;
43216;SDS011;60511;42.686;23.300;2023-05-10T05:15:40;1.65;;;1.55;;
43216;SDS011;60511;42.686;23.300;2023-05-10T05:17:41;4.78;;;2.20;;
43216;SDS011;60511;42.686;23.300;2023-05-10T05:19:41;2.20;;;1.67;;
43216;SDS011;60511;42.686;23.300;2023-05-10T05:21:41;2.55;;;1.90;;
43216;SDS011;60511;42.686;23.300;2023-05-10T05:23:42;8.25;;;2.28;;
43216;SDS011;60511;42.686;23.300;2023-05-10T05:25:42;2.03;;;1.83;;
43216;SDS011;60511;42.686;23.300;2023-05-10T05:27:43;4.13;;;1.90;;
43216;SDS011;60511;42.686;23.300;2023-05-10T05:29:43;1.50;;;1.40;;
43216;SDS011;60511;42.686;23.300;2023-05-10T05:31:44;2.10;;;1.90;;
43216;SDS011;60511;42.686;23.300;2023-05-10T05:33:44;2.75;;;2.08;;
43216;SDS011;60511;42.686;23.300;2023-05-10T05:35:44;2.85;;;2.03;;
43216;SDS011;60511;42.686;23.300;2023-05-10T05:37:51;1.98;;;1.75;;
43216;SDS011;60511;42.686;23.300;2023-05-10T05:39:52;1.98;;;1.65;;
43216;SDS011;60511;42.686;23.300;2023-05-10T05:41:52;2.15;;;1.88;;
43216;SDS011;60511;42.686;23.300;2023-05-10T05:43:52;1.90;;;1.80;;
43216;SDS011;60511;42.686;23.300;2023-05-10T05:45:53;2.63;;;2.13;;
43216;SDS011;60511;42.686;23.300;2023-05-10T05:47:53;1.85;;;1.60;;
43216;SDS011;60511;42.686;23.300;2023-05-10T05:49:54;2.03;;;1.92;;
43216;SDS011;60511;42.686;23.300;2023-05-10T05:51:58;2.63;;;2.00;;
43216;SDS011;60511;42.686;23.300;2023-05-10T05:54:00;2.22;;;1.67;;
43216;SDS011;60511;42.686;23.300;2023-05-10T05:56:01;2.30;;;1.90;;
43216;SDS011;60511;42.686;23.300;2023-05-10T05:58:01;2.00;;;1.75;;
43216;SDS011;60511;42.686;23.300;2023-05-10T06:00:02;2.53;;;2.10;;
43216;SDS011;60511;42.686;23.300;2023-05-10T06:02:04;2.45;;;1.92;;
43216;SDS011;60511;42.686;23.300;2023-05-10T06:04:05;2.30;;;2.10;;
43216;SDS011;60511;42.686;23.300;2023-05-10T06:06:05;2.65;;;1.75;;
43216;SDS011;60511;42.686;23.300;2023-05-10T06:08:06;2.63;;;2.25;;
43216;SDS011;60511;42.686;23.300;2023-05-10T06:10:06;2.80;;;2.03;;
43216;SDS011;60511;42.686;23.300;2023-05-10T06:12:07;1.98;;;1.77;;
43216;SDS011;60511;42.686;23.300;2023-05-10T06:14:08;3.15;;;1.73;;
43216;SDS011;60511;42.686;23.300;2023-05-10T06:16:10;1.67;;;1.58;;
43216;SDS011;60511;42.686;23.300;2023-05-10T06:18:10;2.00;;;1.90;;
43216;SDS011;60511;42.686;23.300;2023-05-10T06:20:11;1.95;;;1.75;;
43216;SDS011;60511;42.686;23.300;2023-05-10T06:22:12;3.20;;;2.20;;
43216;SDS011;60511;42.686;23.300;2023-05-10T06:24:12;2.92;;;2.42;;
43216;SDS011;60511;42.686;23.300;2023-05-10T06:26:12;1.92;;;1.83;;
43216;SDS011;60511;42.686;23.300;2023-05-10T06:28:13;2.63;;;2.25;;
43216;SDS011;60511;42.686;23.300;2023-05-10T06:30:14;1.85;;;1.73;;
43216;SDS011;60511;42.686;23.300;2023-05-10T06:32:15;2.22;;;2.03;;
43216;SDS011;60511;42.686;23.300;2023-05-10T06:34:15;2.63;;;1.95;;
43216;SDS011;60511;42.686;23.300;2023-05-10T06:36:15;4.30;;;2.38;;
43216;SDS011;60511;42.686;23.300;2023-05-10T06:38:16;2.75;;;2.25;;
43216;SDS011;60511;42.686;23.300;2023-05-10T06:40:19;3.35;;;2.28;;
43216;SDS011;60511;42.686;23.300;2023-05-10T06:42:49;4.47;;;3.05;;
43216;SDS011;60511;42.686;23.300;2023-05-10T06:44:49;11.30;;;2.65;;
43216;SDS011;60511;42.686;23.300;2023-05-10T06:46:50;21.75;;;3.05;;
43216;SDS011;60511;42.686;23.300;2023-05-10T06:48:52;8.20;;;3.00;;
43216;SDS011;60511;42.686;23.300;2023-05-10T06:50:52;17.05;;;3.22;;
43216;SDS011;60511;42.686;23.300;2023-05-10T06:52:52;6.90;;;2.88;;
43216;SDS011;60511;42.686;23.300;2023-05-10T06:54:53;4.28;;;2.88;;
43216;SDS011;60511;42.686;23.300;2023-05-10T06:56:53;3.72;;;2.08;;
43216;SDS011;60511;42.686;23.300;2023-05-10T06:58:53;5.65;;;3.08;;
43216;SDS011;60511;42.686;23.300;2023-05-10T07:00:54;4.60;;;2.60;;
43216;SDS011;60511;42.686;23.300;2023-05-10T07:02:55;4.03;;;2.55;;
43216;SDS011;60511;42.686;23.300;2023-05-10T07:04:56;5.32;;;2.60;;
43216;SDS011;60511;42.686;23.300;2023-05-10T07:06:57;3.53;;;3.05;;
43216;SDS011;60511;42.686;23.300;2023-05-10T07:08:59;4.15;;;2.60;;
43216;SDS011;60511;42.686;23.300;2023-05-10T07:11:03;3.03;;;2.33;;
43216;SDS011;60511;42.686;23.300;2023-05-10T07:13:06;2.95;;;2.70;;
43216;SDS011;60511;42.686;23.300;2023-05-10T07:15:06;3.83;;;2.50;;
43216;SDS011;60511;42.686;23.300;2023-05-10T07:17:07;6.38;;;2.72;;
43216;SDS011;60511;42.686;23.300;2023-05-10T07:19:08;4.13;;;2.63;;
43216;SDS011;60511;42.686;23.300;2023-05-10T07:21:09;6.38;;;2.85;;
43216;SDS011;60511;42.686;23.300;2023-05-10T07:23:09;3.85;;;2.42;;
43216;SDS011;60511;42.686;23.300;2023-05-10T07:25:09;2.67;;;2.17;;
43216;SDS011;60511;42.686;23.300;2023-05-10T07:27:10;3.45;;;2.65;;
43216;SDS011;60511;42.686;23.300;2023-05-10T07:29:11;4.13;;;3.05;;
43216;SDS011;60511;42.686;23.300;2023-05-10T07:31:11;3.70;;;2.67;;
43216;SDS011;60511;42.686;23.300;2023-05-10T07:33:12;6.10;;;3.10;;
43216;SDS011;60511;42.686;23.300;2023-05-10T07:35:14;4.93;;;3.03;;
43216;SDS011;60511;42.686;23.300;2023-05-10T07:37:14;3.78;;;2.70;;
43216;SDS011;60511;42.686;23.300;2023-05-10T07:39:14;3.83;;;2.67;;
43216;SDS011;60511;42.686;23.300;2023-05-10T07:41:15;2.72;;;2.53;;
43216;SDS011;60511;42.686;23.300;2023-05-10T07:43:15;3.15;;;2.85;;
43216;SDS011;60511;42.686;23.300;2023-05-10T07:45:16;4.30;;;3.03;;
43216;SDS011;60511;42.686;23.300;2023-05-10T07:47:17;3.00;;;2.70;;
43216;SDS011;60511;42.686;23.300;2023-05-10T07:49:17;4.00;;;2.78;;
43216;SDS011;60511;42.686;23.300;2023-05-10T07:51:18;3.30;;;2.97;;
43216;SDS011;60511;42.686;23.300;2023-05-10T07:53:19;3.60;;;2.75;;
43216;SDS011;60511;42.686;23.300;2023-05-10T07:55:19;3.05;;;2.78;;
43216;SDS011;60511;42.686;23.300;2023-05-10T07:57:21;3.22;;;2.65;;
43216;SDS011;60511;42.686;23.300;2023-05-10T07:59:21;3.47;;;2.97;;
43216;SDS011;60511;42.686;23.300;2023-05-10T08:01:22;3.25;;;2.92;;
43216;SDS011;60511;42.686;23.300;2023-05-10T08:03:22;3.33;;;3.03;;
43216;SDS011;60511;42.686;23.300;2023-05-10T08:05:23;3.97;;;2.92;;
43216;SDS011;60511;42.686;23.300;2023-05-10T08:07:24;3.70;;;3.40;;
43216;SDS011;60511;42.686;23.300;2023-05-10T08:09:25;3.58;;;3.28;;
43216;SDS011;60511;42.686;23.300;2023-05-10T08:11:25;6.38;;;3.30;;
43216;SDS011;60511;42.686;23.300;2023-05-10T08:13:27;3.55;;;3.05;;
43216;SDS011;60511;42.686;23.300;2023-05-10T08:15:28;3.80;;;3.10;;
43216;SDS011;60511;42.686;23.300;2023-05-10T08:17:28;3.58;;;3.20;;
43216;SDS011;60511;42.686;23.300;2023-05-10T08:19:28;4.47;;;3.40;;
43216;SDS011;60511;42.686;23.300;2023-05-10T08:21:30;3.63;;;3.17;;
43216;SDS011;60511;42.686;23.300;2023-05-10T08:23:31;3.92;;;3.58;;
43216;SDS011;60511;42.686;23.300;2023-05-10T08:25:31;3.28;;;3.00;;
43216;SDS011;60511;42.686;23.300;2023-05-10T08:27:32;3.85;;;3.55;;
43216;SDS011;60511;42.686;23.300;2023-05-10T08:29:32;4.45;;;3.85;;
43216;SDS011;60511;42.686;23.300;2023-05-10T08:31:32;4.35;;;3.95;;
43216;SDS011;60511;42.686;23.300;2023-05-10T08:33:33;3.90;;;3.60;;
43216;SDS011;60511;42.686;23.300;2023-05-10T08:35:34;4.15;;;3.72;;
43216;SDS011;60511;42.686;23.300;2023-05-10T08:37:34;3.97;;;3.58;;
43216;SDS011;60511;42.686;23.300;2023-05-10T08:39:36;3.83;;;3.53;;
43216;SDS011;60511;42.686;23.300;2023-05-10T08:41:38;4.10;;;3.65;;
43216;SDS011;60511;42.686;23.300;2023-05-10T08:43:39;4.68;;;3.72;;
43216;SDS011;60511;42.686;23.300;2023-05-10T08:45:46;5.45;;;4.00;;
43216;SDS011;60511;42.686;23.300;2023-05-10T08:47:46;4.72;;;3.40;;
43216;SDS011;60511;42.686;23.300;2023-05-10T08:49:47;4.50;;;4.05;;
43216;SDS011;60511;42.686;23.300;2023-05-10T08:53:52;4.50;;;4.10;;
43216;SDS011;60511;42.686;23.300;2023-05-10T08:55:52;3.67;;;3.45;;
43216;SDS011;60511;42.686;23.300;2023-05-10T08:57:53;4.38;;;3.60;;
43216;SDS011;60511;42.686;23.300;2023-05-10T08:59:53;4.63;;;4.05;;
43216;SDS011;60511;42.686;23.300;2023-05-10T09:01:55;4.55;;;3.90;;
43216;SDS011;60511;42.686;23.300;2023-05-10T09:05:58;4.00;;;3.70;;
43216;SDS011;60511;42.686;23.300;2023-05-10T09:07:58;4.50;;;4.10;;
43216;SDS011;60511;42.686;23.300;2023-05-10T09:10:00;4.18;;;3.80;;
43216;SDS011;60511;42.686;23.300;2023-05-10T09:12:01;4.50;;;4.10;;
43216;SDS011;60511;42.686;23.300;2023-05-10T09:14:01;4.43;;;4.10;;
43216;SDS011;60511;42.686;23.300;2023-05-10T09:16:03;4.47;;;4.07;;
43216;SDS011;60511;42.686;23.300;2023-05-10T09:18:04;4.53;;;4.00;;
43216;SDS011;60511;42.686;23.300;2023-05-10T09:20:04;5.43;;;3.90;;
43216;SDS011;60511;42.686;23.300;2023-05-10T09:22:06;4.05;;;3.65;;
43216;SDS011;60511;42.686;23.300;2023-05-10T09:24:07;4.70;;;4.25;;
43216;SDS011;60511;42.686;23.300;2023-05-10T09:26:08;4.80;;;4.15;;
43216;SDS011;60511;42.686;23.300;2023-05-10T09:28:08;4.90;;;4.13;;
43216;SDS011;60511;42.686;23.300;2023-05-10T09:30:09;4.50;;;4.10;;
43216;SDS011;60511;42.686;23.300;2023-05-10T09:32:10;4.72;;;3.97;;
43216;SDS011;60511;42.686;23.300;2023-05-10T09:34:10;5.53;;;4.25;;
43216;SDS011;60511;42.686;23.300;2023-05-10T09:36:11;4.60;;;4.20;;
43216;SDS011;60511;42.686;23.300;2023-05-10T09:38:12;5.18;;;4.47;;
43216;SDS011;60511;42.686;23.300;2023-05-10T09:40:14;4.75;;;4.35;;
43216;SDS011;60511;42.686;23.300;2023-05-10T09:42:17;5.25;;;4.07;;
43216;SDS011;60511;42.686;23.300;2023-05-10T09:44:18;4.63;;;4.22;;
43216;SDS011;60511;42.686;23.300;2023-05-10T09:46:19;4.10;;;3.40;;
43216;SDS011;60511;42.686;23.300;2023-05-10T09:48:21;4.32;;;4.03;;
43216;SDS011;60511;42.686;23.300;2023-05-10T09:50:24;5.03;;;4.53;;
43216;SDS011;60511;42.686;23.300;2023-05-10T09:52:25;4.97;;;4.57;;
43216;SDS011;60511;42.686;23.300;2023-05-10T09:54:25;4.47;;;4.05;;
43216;SDS011;60511;42.686;23.300;2023-05-10T09:56:37;4.10;;;3.80;;
43216;SDS011;60511;42.686;23.300;2023-05-10T09:58:40;4.45;;;4.10;;
43216;SDS011;60511;42.686;23.300;2023-05-10T10:00:41;4.50;;;4.05;;
43216;SDS011;60511;42.686;23.300;2023-05-10T10:02:43;4.33;;;3.93;;
43216;SDS011;60511;42.686;23.300;2023-05-10T10:04:47;4.38;;;4.00;;
43216;SDS011;60511;42.686;23.300;2023-05-10T10:09:00;4.45;;;4.15;;
43216;SDS011;60511;42.686;23.300;2023-05-10T10:11:00;4.80;;;4.40;;
43216;SDS011;60511;42.686;23.300;2023-05-10T10:13:01;4.55;;;4.18;;
43216;SDS011;60511;42.686;23.300;2023-05-10T10:15:02;5.65;;;5.13;;
43216;SDS011;60511;42.686;23.300;2023-05-10T10:17:05;4.60;;;4.20;;
43216;SDS011;60511;42.686;23.300;2023-05-10T10:19:06;4.97;;;4.13;;
43216;SDS011;60511;42.686;23.300;2023-05-10T10:21:07;5.10;;;4.30;;
43216;SDS011;60511;42.686;23.300;2023-05-10T10:23:08;4.72;;;4.30;;
43216;SDS011;60511;42.686;23.300;2023-05-10T10:25:15;4.35;;;3.97;;
43216;SDS011;60511;42.686;23.300;2023-05-10T10:32:26;5.00;;;4.60;;
43216;SDS011;60511;42.686;23.300;2023-05-10T10:34:35;4.38;;;3.97;;
43216;SDS011;60511;42.686;23.300;2023-05-10T10:36:40;4.63;;;4.22;;
43216;SDS011;60511;42.686;23.300;2023-05-10T10:40:46;5.45;;;4.90;;
43216;SDS011;60511;42.686;23.300;2023-05-10T10:42:47;4.70;;;4.38;;
43216;SDS011;60511;42.686;23.300;2023-05-10T10:44:49;5.13;;;4.50;;
43216;SDS011;60511;42.686;23.300;2023-05-10T10:49:23;4.88;;;4.10;;
43216;SDS011;60511;42.686;23.300;2023-05-10T10:51:23;5.18;;;4.78;;
43216;SDS011;60511;42.686;23.300;2023-05-10T10:53:25;5.28;;;4.63;;
43216;SDS011;60511;42.686;23.300;2023-05-10T10:55:28;5.30;;;4.43;;
43216;SDS011;60511;42.686;23.300;2023-05-10T10:57:33;4.28;;;3.92;;
43216;SDS011;60511;42.686;23.300;2023-05-10T10:59:43;4.57;;;4.18;;
43216;SDS011;60511;42.686;23.300;2023-05-10T11:01:44;5.10;;;4.70;;
43216;SDS011;60511;42.686;23.300;2023-05-10T11:06:00;5.00;;;4.25;;
43216;SDS011;60511;42.686;23.300;2023-05-10T11:08:09;5.47;;;4.30;;
43216;SDS011;60511;42.686;23.300;2023-05-10T11:10:11;4.47;;;4.07;;
43216;SDS011;60511;42.686;23.300;2023-05-10T11:12:11;5.13;;;4.53;;
43216;SDS011;60511;42.686;23.300;2023-05-10T11:14:12;4.70;;;4.30;;
43216;SDS011;60511;42.686;23.300;2023-05-10T11:16:22;4.43;;;4.03;;
43216;SDS011;60511;42.686;23.300;2023-05-10T11:18:28;4.60;;;4.22;;
43216;SDS011;60511;42.686;23.300;2023-05-10T11:20:33;4.43;;;4.10;;
43216;SDS011;60511;42.686;23.300;2023-05-10T11:22:52;4.32;;;4.00;;
43216;SDS011;60511;42.686;23.300;2023-05-10T11:26:56;4.38;;;4.05;;
43216;SDS011;60511;42.686;23.300;2023-05-10T11:28:57;4.80;;;4.28;;
43216;SDS011;60511;42.686;23.300;2023-05-10T11:31:01;3.78;;;3.53;;
43216;SDS011;60511;42.686;23.300;2023-05-10T11:33:02;4.68;;;4.38;;
43216;SDS011;60511;42.686;23.300;2023-05-10T11:35:09;4.78;;;4.28;;
43216;SDS011;60511;42.686;23.300;2023-05-10T11:37:10;4.05;;;3.75;;
43216;SDS011;60511;42.686;23.300;2023-05-10T11:39:10;4.93;;;4.53;;
43216;SDS011;60511;42.686;23.300;2023-05-10T11:41:11;5.13;;;4.57;;
43216;SDS011;60511;42.686;23.300;2023-05-10T11:43:12;4.05;;;3.60;;
43216;SDS011;60511;42.686;23.300;2023-05-10T11:45:13;4.57;;;3.85;;
43216;SDS011;60511;42.686;23.300;2023-05-10T11:47:13;4.65;;;4.25;;
43216;SDS011;60511;42.686;23.300;2023-05-10T11:49:13;5.05;;;3.83;;
43216;SDS011;60511;42.686;23.300;2023-05-10T11:51:14;4.00;;;3.70;;
43216;SDS011;60511;42.686;23.300;2023-05-10T11:53:15;4.90;;;3.97;;
43216;SDS011;60511;42.686;23.300;2023-05-10T11:55:15;4.13;;;3.83;;
43216;SDS011;60511;42.686;23.300;2023-05-10T11:57:16;4.63;;;4.18;;
43216;SDS011;60511;42.686;23.300;2023-05-10T11:59:17;4.97;;;4.18;;
43216;SDS011;60511;42.686;23.300;2023-05-10T12:01:18;3.65;;;3.40;;
43216;SDS011;60511;42.686;23.300;2023-05-10T12:03:18;4.93;;;3.75;;
43216;SDS011;60511;42.686;23.300;2023-05-10T12:05:19;4.47;;;4.07;;
43216;SDS011;60511;42.686;23.300;2023-05-10T12:07:19;3.85;;;3.55;;
43216;SDS011;60511;42.686;23.300;2023-05-10T12:09:20;4.30;;;3.92;;
43216;SDS011;60511;42.686;23.300;2023-05-10T12:11:23;4.20;;;3.80;;
43216;SDS011;60511;42.686;23.300;2023-05-10T12:13:25;4.20;;;3.85;;
43216;SDS011;60511;42.686;23.300;2023-05-10T12:15:26;4.20;;;3.80;;
43216;SDS011;60511;42.686;23.300;2023-05-10T12:17:28;3.95;;;3.65;;
43216;SDS011;60511;42.686;23.300;2023-05-10T12:19:36;4.78;;;4.38;;
43216;SDS011;60511;42.686;23.300;2023-05-10T12:21:37;3.60;;;3.33;;
43216;SDS011;60511;42.686;23.300;2023-05-10T12:23:38;4.35;;;3.88;;
43216;SDS011;60511;42.686;23.300;2023-05-10T12:25:39;4.45;;;4.05;;
43216;SDS011;60511;42.686;23.300;2023-05-10T12:27:41;3.42;;;3.13;;
43216;SDS011;60511;42.686;23.300;2023-05-10T12:29:47;4.20;;;3.88;;
43216;SDS011;60511;42.686;23.300;2023-05-10T12:31:58;4.40;;;3.90;;
43216;SDS011;60511;42.686;23.300;2023-05-10T12:33:59;4.13;;;3.80;;
43216;SDS011;60511;42.686;23.300;2023-05-10T12:36:00;4.00;;;3.42;;
43216;SDS011;60511;42.686;23.300;2023-05-10T12:38:00;6.70;;;4.50;;